Straumvik — LEYJ — position and weather

sailwx.info

Track history (hours):
 
Tides and Currents Weather Stations Pressure Air Temp Water Temp Dewpoint Dewpoint Depression Visibility Wind Speed Wind Dir Waves Ship Positions

Straumvik

Last reported at 2015-Jul-19 16:14 UTC. Time now 2015-Jul-29 00:38 UTC.
Position N 59°51' E 005°16'.
Warning: this ship's position is 9 days out of date.

Length 50 m; draft 5 m.

Type: Ship. MMSI: 258260000.

Date/timePositionNaut miles runAvg speedWind from/ knotsBaromVisibWave heightAir tempDewpointWater temp
2015-Jul-19 16:14N 59°51' E 005°16'5 7.8
2015-Jul-19 15:33N 59°46' E 005°21'7 7.3
2015-Jul-19 14:33N 59°39' E 005°20'8 8.3
2015-Jul-19 13:33N 59°31' E 005°13'7 7.1
2015-Jul-19 12:32N 59°24' E 005°16'7 7.6
2015-Jul-19 11:33N 59°17' E 005°20'7 6.8
2015-Jul-19 10:33N 59°12' E 005°29'7 7.2
2015-Jul-19 09:33N 59°09' E 005°42'8 7.7
2015-Jul-19 08:33N 59°03' E 005°52'7 7.4
2015-Jul-19 07:33N 58°57' E 005°59'4 3.1
2015-Jul-19 06:09N 58°54' E 006°05'0 0.0
2015-Jul-19 05:28N 58°54' E 006°05'0 0.0
2015-Jul-19 04:33N 58°54' E 006°05'5 1.3
2015-Jul-19 00:33N 58°57' E 005°58'9 9.0
2015-Jul-18 23:33N 59°05' E 005°50'10 9.8
2015-Jul-18 22:34N 59°11' E 005°34'9 8.7
2015-Jul-18 21:33N 59°16' E 005°20'9 8.9
2015-Jul-18 20:33N 59°25' E 005°15'8 7.8
2015-Jul-18 19:33N 59°32' E 005°14'7 6.8
2015-Jul-18 18:32N 59°38' E 005°19'7 6.7
2015-Jul-18 17:33N 59°45' E 005°22'  
Track history (hours):
 
Tides and Currents Weather Stations Pressure Air Temp Water Temp Dewpoint Dewpoint Depression Visibility Wind Speed Wind Dir Waves Ship Positions

Straumvik

Last reported at 2015-Jul-19 16:14 UTC. Time now 2015-Jul-29 00:38 UTC.
Position N 59°51' E 005°16'.
Warning: this ship's position is 9 days out of date.

Length 50 m; draft 5 m.

Type: Ship. MMSI: 258260000.

Date/timePositionNaut miles runAvg speedWind from/ knotsBaromVisibWave heightAir tempDewpointWater temp
2015-Jul-19 16:14N 59°51' E 005°16'5 7.8
2015-Jul-19 15:33N 59°46' E 005°21'7 7.3
2015-Jul-19 14:33N 59°39' E 005°20'8 8.3
2015-Jul-19 13:33N 59°31' E 005°13'7 7.1
2015-Jul-19 12:32N 59°24' E 005°16'7 7.6
2015-Jul-19 11:33N 59°17' E 005°20'7 6.8
2015-Jul-19 10:33N 59°12' E 005°29'7 7.2
2015-Jul-19 09:33N 59°09' E 005°42'8 7.7
2015-Jul-19 08:33N 59°03' E 005°52'7 7.4
2015-Jul-19 07:33N 58°57' E 005°59'4 3.1
2015-Jul-19 06:09N 58°54' E 006°05'0 0.0
2015-Jul-19 05:28N 58°54' E 006°05'0 0.0
2015-Jul-19 04:33N 58°54' E 006°05'5 1.3
2015-Jul-19 00:33N 58°57' E 005°58'9 9.0
2015-Jul-18 23:33N 59°05' E 005°50'10 9.8
2015-Jul-18 22:34N 59°11' E 005°34'9 8.7
2015-Jul-18 21:33N 59°16' E 005°20'9 8.9
2015-Jul-18 20:33N 59°25' E 005°15'8 7.8
2015-Jul-18 19:33N 59°32' E 005°14'7 6.8
2015-Jul-18 18:32N 59°38' E 005°19'7 6.7
2015-Jul-18 17:33N 59°45' E 005°22'  

Dump ship's entire track history